createdAt,value
2018-03-03T00:00:21.827Z,76.30
2018-03-03T00:02:50.875Z,76.80
2018-03-03T00:05:19.108Z,76.60
2018-03-03T00:07:48.012Z,77.50
2018-03-03T00:10:16.167Z,75.87
2018-03-03T00:12:45.128Z,76.40
2018-03-03T00:15:14.075Z,73.53
2018-03-03T00:17:42.263Z,79.90
2018-03-03T00:20:11.143Z,76.10
2018-03-03T00:22:41.471Z,78.27
2018-03-03T00:25:09.636Z,77.27
2018-03-03T00:27:37.813Z,78.30
2018-03-03T00:30:06.046Z,77.73
2018-03-03T00:32:34.229Z,75.37
2018-03-03T00:35:03.197Z,77.47
2018-03-03T00:37:31.585Z,76.67
2018-03-03T00:39:59.910Z,79.63
2018-03-03T00:42:28.085Z,77.53
2018-03-03T00:44:56.248Z,75.63
2018-03-03T00:47:24.436Z,76.20
2018-03-03T00:49:52.624Z,77.13
2018-03-03T00:52:20.990Z,78.93
2018-03-03T00:54:49.179Z,77.67
2018-03-03T00:57:17.991Z,76.97
2018-03-03T00:59:46.248Z,77.03
2018-03-03T01:02:14.418Z,78.90
2018-03-03T01:04:42.580Z,74.90
2018-03-03T01:07:10.740Z,101.50
2018-03-03T01:09:38.877Z,86.23
2018-03-03T01:12:07.042Z,80.90
2018-03-03T01:14:35.377Z,76.97
2018-03-03T01:17:03.553Z,77.23
2018-03-03T01:19:31.865Z,79.63
2018-03-03T01:22:00.012Z,80.47
2018-03-03T01:24:28.480Z,80.13
2018-03-03T01:26:56.674Z,77.90
2018-03-03T01:29:24.812Z,77.50
2018-03-03T01:31:52.990Z,80.23
2018-03-03T01:34:21.159Z,78.27
2018-03-03T01:36:49.846Z,80.93
2018-03-03T01:39:18.030Z,81.97
2018-03-03T01:41:46.254Z,80.33
2018-03-03T01:44:14.409Z,78.57
2018-03-03T01:46:42.572Z,82.23
2018-03-03T01:49:10.831Z,80.07
2018-03-03T01:51:42.864Z,80.97
2018-03-03T01:54:11.191Z,77.93
2018-03-03T01:56:39.339Z,80.00
2018-03-03T01:59:07.572Z,79.67
2018-03-03T02:01:35.733Z,77.37
2018-03-03T02:04:03.896Z,80.13
2018-03-03T02:06:32.062Z,82.23
2018-03-03T02:09:00.209Z,82.73
2018-03-03T02:11:29.074Z,87.53
2018-03-03T02:13:58.004Z,85.93
2018-03-03T02:16:26.215Z,80.10
2018-03-03T02:18:54.409Z,77.87
2018-03-03T02:21:22.568Z,81.60
2018-03-03T02:23:50.817Z,80.93
2018-03-03T02:26:18.977Z,85.40
2018-03-03T02:28:47.149Z,81.43
2018-03-03T02:31:15.291Z,81.43
2018-03-03T02:33:43.456Z,83.93
2018-03-03T02:36:11.820Z,79.37
2018-03-03T02:38:39.967Z,83.63
2018-03-03T02:41:08.465Z,84.30
2018-03-03T02:43:36.643Z,86.47
2018-03-03T02:46:04.782Z,86.07
2018-03-03T02:48:32.914Z,84.57
2018-03-03T02:51:01.857Z,81.37
2018-03-03T02:53:30.148Z,86.10
2018-03-03T02:55:58.325Z,84.17
2018-03-03T02:58:26.488Z,80.97
2018-03-03T03:00:54.658Z,80.97
2018-03-03T03:03:22.802Z,82.73
2018-03-03T03:05:50.968Z,80.63
2018-03-03T03:08:19.207Z,84.43
2018-03-03T03:10:47.496Z,85.97
2018-03-03T03:13:16.927Z,82.33
2018-03-03T03:15:46.058Z,85.67
2018-03-03T03:18:14.235Z,79.77
2018-03-03T03:20:42.424Z,87.43
2018-03-03T03:23:10.583Z,81.23
2018-03-03T03:25:38.838Z,83.20
2018-03-03T03:28:06.992Z,85.37
2018-03-03T03:30:35.189Z,85.63
2018-03-03T03:33:03.366Z,86.67
2018-03-03T03:35:31.533Z,81.33
2018-03-03T03:37:59.681Z,85.60
2018-03-03T03:40:27.848Z,83.90
2018-03-03T03:42:56.154Z,81.83
2018-03-03T03:45:24.387Z,81.80
2018-03-03T03:47:53.775Z,80.83
2018-03-03T03:50:22.796Z,84.03
2018-03-03T03:52:50.943Z,84.40
2018-03-03T03:55:19.098Z,85.83
2018-03-03T03:57:47.324Z,82.77
2018-03-03T04:00:16.270Z,85.23
2018-03-03T04:02:44.431Z,83.67
2018-03-03T04:05:12.613Z,81.77
2018-03-03T04:07:40.936Z,84.57
2018-03-03T04:10:09.976Z,84.47
2018-03-03T04:12:38.127Z,87.70
2018-03-03T04:15:06.275Z,83.87
2018-03-03T04:17:34.555Z,85.37
2018-03-03T04:20:03.303Z,85.80
2018-03-03T04:22:31.554Z,87.17
2018-03-03T04:24:59.691Z,92.60
2018-03-03T04:27:27.986Z,89.83
2018-03-03T04:29:56.274Z,92.93
2018-03-03T04:32:24.420Z,92.63
2018-03-03T04:34:52.590Z,96.07
2018-03-03T04:37:20.739Z,90.70
2018-03-03T04:39:49.125Z,91.53
2018-03-03T04:42:18.069Z,87.70
2018-03-03T04:44:46.231Z,87.13
2018-03-03T04:47:14.389Z,96.53
2018-03-03T04:49:42.700Z,97.07
2018-03-03T04:52:10.890Z,96.53
2018-03-03T04:54:40.035Z,97.47
2018-03-03T04:57:08.398Z,100.40
2018-03-03T04:59:54.095Z,95.83
2018-03-03T05:02:40.207Z,98.93
2018-03-03T05:05:14.185Z,97.00
2018-03-03T05:08:03.197Z,96.13
2018-03-03T05:10:41.268Z,101.03
2018-03-03T05:13:24.328Z,96.10
2018-03-03T05:15:53.967Z,97.13
2018-03-03T05:18:28.729Z,101.63
2018-03-03T05:21:02.501Z,105.57
2018-03-03T05:23:49.421Z,96.80
2018-03-03T05:26:24.040Z,100.23
2018-03-03T05:28:58.722Z,100.17
2018-03-03T05:31:33.281Z,104.37
2018-03-03T05:34:07.953Z,105.17
2018-03-03T05:36:41.997Z,99.40
2018-03-03T05:39:26.184Z,96.03
2018-03-03T05:42:00.732Z,98.20
2018-03-03T05:44:46.762Z,98.97
2018-03-03T05:47:24.983Z,96.63
2018-03-03T05:49:59.726Z,96.30
2018-03-03T05:52:33.601Z,92.43
2018-03-03T05:55:08.318Z,94.93
2018-03-03T05:57:42.248Z,98.00
2018-03-03T06:00:16.693Z,92.77
2018-03-03T06:02:50.472Z,95.77
2018-03-03T06:05:24.310Z,93.10
2018-03-03T06:07:57.074Z,99.10
2018-03-03T06:10:42.528Z,96.77
2018-03-03T06:13:10.745Z,93.07
2018-03-03T06:15:38.921Z,94.17
2018-03-03T06:18:07.230Z,89.40
2018-03-03T06:20:36.232Z,92.07
2018-03-03T06:23:04.454Z,89.30
2018-03-03T06:25:32.735Z,92.63
2018-03-03T06:28:01.659Z,93.40
2018-03-03T06:30:29.948Z,96.37
2018-03-03T06:32:59.055Z,94.77
2018-03-03T06:35:27.210Z,96.63
2018-03-03T06:37:55.462Z,90.47
2018-03-03T06:40:23.644Z,95.00
2018-03-03T06:42:51.901Z,90.43
2018-03-03T06:45:20.825Z,90.77
2018-03-03T06:47:49.227Z,97.90
2018-03-03T06:50:18.204Z,92.67
2018-03-03T06:52:46.422Z,88.33
2018-03-03T06:55:14.595Z,90.37
2018-03-03T06:57:42.883Z,88.50
2018-03-03T07:00:11.809Z,91.47
2018-03-03T07:02:39.960Z,87.03
2018-03-03T07:05:08.992Z,84.90
2018-03-03T07:07:37.271Z,87.77
2018-03-03T07:10:05.441Z,89.87
2018-03-03T07:12:33.689Z,88.00
2018-03-03T07:15:12.582Z,87.60
2018-03-03T07:17:41.588Z,86.00
2018-03-03T07:20:09.745Z,85.37
2018-03-03T07:22:39.411Z,84.97
2018-03-03T07:25:07.557Z,83.93
2018-03-03T07:27:35.793Z,81.30
2018-03-03T07:30:04.751Z,83.77
2018-03-03T07:32:32.924Z,80.53
2018-03-03T07:35:01.683Z,80.40
2018-03-03T07:37:29.858Z,79.77
2018-03-03T07:39:58.778Z,77.73
2018-03-03T07:42:27.091Z,78.33
2018-03-03T07:44:55.225Z,76.87
2018-03-03T07:47:23.377Z,99.78
2018-03-03T07:49:52.285Z,79.37
2018-03-03T07:52:20.475Z,77.77
2018-03-03T07:54:48.635Z,79.07
2018-03-03T07:57:16.800Z,75.73
2018-03-03T07:59:45.460Z,75.90
2018-03-03T08:02:14.494Z,73.80
2018-03-03T08:04:42.659Z,72.63
2018-03-03T08:07:10.827Z,73.37
2018-03-03T08:09:38.987Z,74.90
2018-03-03T08:12:07.275Z,73.53
2018-03-03T08:14:36.214Z,70.73
2018-03-03T08:17:05.959Z,74.43
2018-03-03T08:19:34.910Z,73.73
2018-03-03T08:22:03.141Z,74.43
2018-03-03T08:24:31.635Z,78.62
2018-03-03T08:27:00.413Z,74.27
2018-03-03T08:29:28.612Z,73.17
2018-03-03T08:31:57.150Z,75.50
2018-03-03T08:34:25.336Z,69.10
2018-03-03T08:36:53.668Z,72.60
2018-03-03T08:39:21.815Z,71.00
2018-03-03T08:41:50.154Z,70.73
2018-03-03T08:46:54.409Z,70.97
2018-03-03T08:49:22.630Z,69.27
2018-03-03T08:51:50.799Z,70.77
2018-03-03T08:54:19.026Z,71.63
2018-03-03T08:56:47.286Z,69.27
2018-03-03T08:59:16.928Z,69.50
2018-03-03T09:01:45.169Z,72.03
2018-03-03T09:04:14.322Z,69.50
2018-03-03T09:06:42.746Z,67.83
2018-03-03T09:09:14.364Z,66.90
2018-03-03T09:11:42.634Z,69.60
2018-03-03T09:14:10.991Z,70.07
2018-03-03T09:16:39.370Z,66.00
2018-03-03T09:19:07.547Z,68.93
2018-03-03T09:21:35.704Z,67.97
2018-03-03T09:24:03.910Z,68.67
2018-03-03T09:26:32.228Z,66.77
2018-03-03T09:29:00.530Z,66.23
2018-03-03T09:31:28.667Z,66.27
2018-03-03T09:33:57.015Z,65.43
2018-03-03T09:36:25.188Z,62.07
2018-03-03T09:38:54.150Z,64.53
2018-03-03T09:41:22.322Z,65.20
2018-03-03T09:43:50.497Z,63.17
2018-03-03T09:46:18.672Z,62.03
2018-03-03T09:48:46.860Z,63.83
2018-03-03T09:51:15.131Z,62.07
2018-03-03T09:53:43.296Z,62.50
2018-03-03T09:56:11.658Z,60.90
2018-03-03T09:58:40.556Z,60.03
2018-03-03T10:01:08.696Z,59.93
2018-03-03T10:03:36.923Z,61.23
2018-03-03T10:06:05.077Z,59.70
2018-03-03T10:08:33.466Z,61.67
2018-03-03T10:11:01.633Z,58.70
2018-03-03T10:13:29.844Z,60.60
2018-03-03T10:15:58.207Z,59.73
2018-03-03T10:18:26.364Z,60.57
2018-03-03T10:20:54.635Z,59.60
2018-03-03T10:23:22.961Z,59.87
2018-03-03T10:25:51.116Z,58.63
2018-03-03T10:28:19.827Z,60.87
2018-03-03T10:30:47.980Z,60.87
2018-03-03T10:33:16.158Z,57.80
2018-03-03T10:35:44.341Z,57.77
2018-03-03T10:38:12.646Z,58.73
2018-03-03T10:40:41.938Z,60.70
2018-03-03T10:43:10.864Z,58.07
2018-03-03T10:45:39.044Z,60.77
2018-03-03T10:48:07.275Z,61.97
2018-03-03T10:50:35.464Z,58.93
2018-03-03T10:53:04.492Z,57.53
2018-03-03T10:55:32.849Z,59.50
2018-03-03T10:58:01.057Z,57.63
2018-03-03T11:00:29.303Z,57.80
2018-03-03T11:02:57.466Z,60.10
2018-03-03T11:05:25.737Z,56.63
2018-03-03T11:07:54.819Z,59.33
2018-03-03T11:10:23.104Z,60.60
2018-03-03T11:12:51.797Z,57.20
2018-03-03T11:15:20.716Z,57.07
2018-03-03T11:17:48.973Z,57.73
2018-03-03T11:20:17.716Z,58.33
2018-03-03T11:22:45.874Z,56.77
2018-03-03T11:25:14.018Z,57.47
2018-03-03T11:27:42.415Z,59.53
2018-03-03T11:30:10.574Z,58.70
2018-03-03T11:32:38.730Z,59.80
2018-03-03T11:35:06.872Z,57.57
2018-03-03T11:37:35.176Z,61.77
2018-03-03T11:40:05.044Z,60.63
2018-03-03T11:42:33.195Z,63.97
2018-03-03T11:45:01.327Z,59.33
2018-03-03T11:47:30.259Z,63.57
2018-03-03T11:49:58.421Z,55.10
2018-03-03T11:52:26.648Z,58.27
2018-03-03T11:54:54.800Z,65.50
2018-03-03T11:57:23.236Z,58.33
2018-03-03T11:59:51.384Z,61.40
2018-03-03T12:02:20.316Z,59.73
2018-03-03T12:04:48.966Z,56.97
2018-03-03T12:07:18.064Z,52.57
2018-03-03T12:09:46.994Z,58.93
2018-03-03T12:12:15.148Z,56.47
2018-03-03T12:14:44.083Z,56.60
2018-03-03T12:17:12.238Z,54.40
2018-03-03T12:19:40.382Z,56.60
2018-03-03T12:22:08.667Z,56.90
2018-03-03T12:24:36.827Z,55.93
2018-03-03T12:27:05.104Z,66.67
2018-03-03T12:29:33.288Z,69.00
2018-03-03T12:32:01.597Z,57.33
2018-03-03T12:34:29.740Z,57.63
2018-03-03T12:36:57.898Z,63.27
2018-03-03T12:39:26.806Z,57.37
2018-03-03T12:41:54.963Z,58.80
2018-03-03T12:44:23.379Z,55.33
2018-03-03T12:46:51.549Z,57.53
2018-03-03T12:49:19.691Z,58.43
2018-03-03T12:51:47.851Z,56.77
2018-03-03T12:54:16.976Z,58.10
2018-03-03T12:56:45.213Z,55.47
2018-03-03T12:59:13.371Z,59.87
2018-03-03T13:01:41.533Z,58.37
2018-03-03T13:04:09.885Z,56.13
2018-03-03T13:06:38.039Z,56.90
2018-03-03T13:09:06.230Z,55.43
2018-03-03T13:11:34.394Z,56.80
2018-03-03T13:14:02.685Z,54.80
2018-03-03T13:16:30.901Z,60.10
2018-03-03T13:18:59.145Z,57.03
2018-03-03T13:21:27.493Z,58.33
2018-03-03T13:23:55.660Z,62.93
2018-03-03T13:26:24.564Z,55.60
2018-03-03T13:28:52.720Z,56.20
2018-03-03T13:31:21.813Z,56.23
2018-03-03T13:33:50.721Z,56.17
2018-03-03T13:36:19.726Z,56.97
2018-03-03T13:38:48.082Z,55.43
2018-03-03T13:41:16.996Z,58.57
2018-03-03T13:43:45.219Z,54.83
2018-03-03T13:46:13.438Z,56.50
2018-03-03T13:48:41.981Z,53.83
2018-03-03T13:51:10.524Z,52.00
2018-03-03T13:53:38.772Z,52.73
2018-03-03T13:56:06.994Z,54.90
2018-03-03T13:58:35.132Z,53.37
2018-03-03T14:01:03.542Z,52.77
2018-03-03T14:03:31.796Z,52.30
2018-03-03T14:06:00.716Z,51.60
2018-03-03T14:08:29.022Z,53.00
2018-03-03T14:10:57.368Z,52.10
2018-03-03T14:13:25.604Z,55.10
2018-03-03T14:15:53.889Z,56.50
2018-03-03T14:18:22.133Z,57.63
2018-03-03T14:20:50.304Z,56.27
2018-03-03T14:23:18.479Z,57.60
2018-03-03T14:25:46.651Z,57.63
2018-03-03T14:28:15.580Z,57.27
2018-03-03T14:30:43.746Z,58.63
2018-03-03T14:33:12.045Z,58.20
2018-03-03T14:35:40.187Z,56.27
2018-03-03T14:38:08.365Z,57.37
2018-03-03T14:40:36.866Z,56.40
2018-03-03T14:43:05.187Z,57.50
2018-03-03T14:45:33.358Z,57.30
2018-03-03T14:48:05.993Z,56.97
2018-03-03T14:50:34.187Z,54.50
2018-03-03T14:53:02.369Z,56.20
2018-03-03T14:55:30.878Z,53.13
2018-03-03T14:57:59.868Z,54.67
2018-03-03T15:00:28.180Z,53.07
2018-03-03T15:02:56.425Z,52.87
2018-03-03T15:05:27.181Z,52.60
2018-03-03T15:07:55.353Z,52.83
2018-03-03T15:10:23.487Z,54.03
2018-03-03T15:12:51.649Z,52.97
2018-03-03T15:15:19.992Z,52.97
2018-03-03T15:17:48.174Z,53.00
2018-03-03T15:20:16.446Z,51.63
2018-03-03T15:22:44.665Z,53.27
2018-03-03T15:25:13.078Z,50.83
2018-03-03T15:27:42.081Z,51.20
2018-03-03T15:30:11.066Z,50.27
2018-03-03T15:32:40.711Z,51.70
2018-03-03T15:35:08.906Z,49.13
2018-03-03T15:37:37.057Z,51.13
2018-03-03T15:40:05.219Z,52.20
2018-03-03T15:42:33.458Z,51.63
2018-03-03T15:45:02.491Z,53.07
2018-03-03T15:47:31.382Z,51.97
2018-03-03T15:49:59.554Z,55.23
2018-03-03T15:52:27.770Z,53.07
2018-03-03T15:54:56.123Z,56.57
2018-03-03T15:57:24.306Z,54.93
2018-03-03T15:59:52.468Z,55.53
2018-03-03T16:02:20.705Z,55.37
2018-03-03T16:04:48.904Z,56.23
2018-03-03T16:07:17.049Z,56.10
2018-03-03T16:09:45.213Z,55.70
2018-03-03T16:12:14.318Z,57.63
2018-03-03T16:14:43.276Z,56.50
2018-03-03T16:17:11.573Z,62.10
2018-03-03T16:19:40.414Z,66.43
2018-03-03T16:22:09.302Z,69.63
2018-03-03T16:24:37.468Z,64.20
2018-03-03T16:27:05.621Z,57.63
2018-03-03T16:29:33.772Z,56.03
2018-03-03T16:32:02.676Z,53.63
2018-03-03T16:34:30.849Z,53.97
2018-03-03T16:36:59.022Z,55.37
2018-03-03T16:39:27.194Z,53.93
2018-03-03T16:41:56.292Z,55.00
2018-03-03T16:44:24.458Z,54.03
2018-03-03T16:46:53.512Z,51.77
2018-03-03T16:49:21.786Z,54.43
2018-03-03T16:51:49.939Z,54.53
2018-03-03T16:54:18.087Z,53.47
2018-03-03T16:56:47.588Z,53.93
2018-03-03T16:59:15.774Z,54.43
2018-03-03T17:01:44.022Z,54.27
2018-03-03T17:04:13.070Z,53.77
2018-03-03T17:06:41.440Z,56.97
2018-03-03T17:09:10.585Z,55.73
2018-03-03T17:11:38.880Z,56.63
2018-03-03T17:14:07.039Z,57.73
2018-03-03T17:16:35.959Z,58.47
2018-03-03T17:19:04.136Z,60.73
2018-03-03T17:21:32.289Z,60.50
2018-03-03T17:24:00.552Z,60.43
2018-03-03T17:26:29.566Z,59.30
2018-03-03T17:28:57.807Z,59.80
2018-03-03T17:31:25.961Z,60.10
2018-03-03T17:33:54.142Z,61.83
2018-03-03T17:36:22.283Z,60.97
2018-03-03T17:38:50.436Z,62.07
2018-03-03T17:41:18.808Z,62.20
2018-03-03T17:43:46.998Z,76.07
2018-03-03T17:46:15.357Z,72.47
2018-03-03T17:48:44.277Z,66.37
2018-03-03T17:51:12.567Z,71.63
2018-03-03T17:53:40.951Z,70.87
2018-03-03T17:56:09.328Z,80.20
2018-03-03T17:58:38.448Z,82.70
2018-03-03T18:01:06.919Z,83.97
2018-03-03T18:03:35.061Z,87.17
2018-03-03T18:06:03.228Z,75.13
2018-03-03T18:08:31.472Z,74.03
2018-03-03T18:11:00.648Z,72.27
2018-03-03T18:13:29.051Z,61.67
2018-03-03T18:15:57.206Z,74.30
2018-03-03T18:18:25.623Z,63.13
2018-03-03T18:20:53.794Z,59.17
2018-03-03T18:23:22.092Z,60.40
2018-03-03T18:25:50.266Z,65.17
2018-03-03T18:28:18.428Z,63.17
2018-03-03T18:30:46.603Z,64.10
2018-03-03T18:33:14.797Z,69.70
2018-03-03T18:35:42.946Z,62.30
2018-03-03T18:38:11.124Z,65.67
2018-03-03T18:40:39.334Z,64.87
2018-03-03T18:43:08.094Z,61.80
2018-03-03T18:45:36.268Z,62.53
2018-03-03T18:48:04.544Z,64.37
2018-03-03T18:50:32.686Z,63.97
2018-03-03T18:53:01.776Z,65.90
2018-03-03T18:55:30.726Z,74.73
2018-03-03T18:57:59.036Z,68.40
2018-03-03T19:00:27.996Z,67.40
2018-03-03T19:02:56.171Z,75.03
2018-03-03T19:05:24.318Z,87.83
2018-03-03T19:07:52.466Z,96.10
2018-03-03T19:10:20.650Z,62.60
2018-03-03T19:12:48.818Z,100.03
2018-03-03T19:15:17.332Z,65.03
2018-03-03T19:17:45.482Z,67.47
2018-03-03T19:20:13.699Z,67.30
2018-03-03T19:22:41.875Z,68.10
2018-03-03T19:25:10.049Z,70.87
2018-03-03T19:27:38.289Z,72.70
2018-03-03T19:30:06.483Z,70.23
2018-03-03T19:32:34.652Z,73.60
2018-03-03T19:35:02.897Z,73.63
2018-03-03T19:37:31.077Z,65.30
2018-03-03T19:39:59.297Z,71.20
2018-03-03T19:42:27.431Z,66.67
2018-03-03T19:44:55.680Z,61.73
2018-03-03T19:47:24.638Z,60.33
2018-03-03T19:49:52.812Z,72.17
2018-03-03T19:52:20.952Z,71.43
2018-03-03T19:54:49.322Z,74.07
2018-03-03T19:57:17.485Z,67.77
2018-03-03T19:59:45.639Z,69.50
2018-03-03T20:02:13.808Z,66.20
2018-03-03T20:04:41.951Z,62.87
2018-03-03T20:07:10.330Z,73.97
2018-03-03T20:09:38.540Z,68.87
2018-03-03T20:12:07.445Z,67.73
2018-03-03T20:14:35.632Z,68.27
2018-03-03T20:17:03.796Z,65.00
2018-03-03T20:19:32.072Z,64.33
2018-03-03T20:22:00.300Z,65.10
2018-03-03T20:24:28.552Z,62.33
2018-03-03T20:26:56.781Z,63.40
2018-03-03T20:29:24.970Z,66.50
2018-03-03T20:31:53.370Z,64.97
2018-03-03T20:34:21.612Z,65.30
2018-03-03T20:36:50.611Z,66.40
2018-03-03T20:39:18.803Z,63.83
2018-03-03T20:41:46.971Z,64.23
2018-03-03T20:44:15.137Z,67.03
2018-03-03T20:46:44.075Z,63.53
2018-03-03T20:49:12.445Z,69.20
2018-03-03T20:51:40.600Z,67.77
2018-03-03T20:54:08.854Z,63.20
2018-03-03T20:56:38.313Z,63.03
2018-03-03T20:59:06.517Z,60.77
2018-03-03T21:01:35.502Z,60.53
2018-03-03T21:04:04.439Z,63.20
2018-03-03T21:06:32.587Z,59.73
2018-03-03T21:09:00.843Z,59.23
2018-03-03T21:11:38.916Z,59.13
2018-03-03T21:14:07.128Z,59.43
2018-03-03T21:16:35.321Z,60.33
2018-03-03T21:19:03.485Z,59.97
2018-03-03T21:21:31.660Z,60.40
2018-03-03T21:24:00.344Z,60.60
2018-03-03T21:26:29.287Z,60.07
2018-03-03T21:28:57.451Z,63.07
2018-03-03T21:31:25.688Z,61.67
2018-03-03T21:33:53.846Z,71.83
2018-03-03T21:36:22.129Z,62.60
2018-03-03T21:38:51.335Z,62.83
2018-03-03T21:41:19.512Z,60.77
2018-03-03T21:43:48.554Z,66.07
2018-03-03T21:46:16.727Z,61.83
2018-03-03T21:48:45.096Z,65.57
2018-03-03T21:51:13.311Z,66.10
2018-03-03T21:53:41.509Z,66.17
2018-03-03T21:56:09.772Z,66.23
2018-03-03T21:58:38.795Z,65.07
2018-03-03T22:01:06.953Z,63.83
2018-03-03T22:03:35.248Z,60.97
2018-03-03T22:06:03.533Z,60.40
2018-03-03T22:08:31.899Z,59.30
2018-03-03T22:11:00.213Z,59.97
2018-03-03T22:13:29.206Z,63.33
2018-03-03T22:15:57.518Z,61.33
2018-03-03T22:18:25.668Z,61.97
2018-03-03T22:20:53.835Z,61.67
2018-03-03T22:23:22.467Z,60.57
2018-03-03T22:25:50.837Z,63.00
2018-03-03T22:28:19.775Z,57.20
2018-03-03T22:30:48.745Z,57.07
2018-03-03T22:33:16.915Z,63.07
2018-03-03T22:35:45.099Z,61.20
2018-03-03T22:38:13.241Z,57.83
2018-03-03T22:40:42.268Z,58.77
2018-03-03T22:43:10.592Z,56.77
2018-03-03T22:45:39.075Z,54.30
2018-03-03T22:48:08.813Z,55.73
2018-03-03T22:50:37.157Z,53.30
2018-03-03T22:53:05.358Z,58.67
2018-03-03T22:55:33.529Z,56.30
2018-03-03T22:58:01.743Z,54.33
2018-03-03T23:00:30.014Z,56.23
2018-03-03T23:02:58.203Z,53.73
2018-03-03T23:05:27.636Z,58.87
2018-03-03T23:07:56.694Z,58.37
2018-03-03T23:10:25.659Z,55.27
2018-03-03T23:12:54.411Z,54.50
2018-03-03T23:15:22.614Z,56.47
2018-03-03T23:17:50.757Z,55.13
2018-03-03T23:20:18.929Z,53.40
2018-03-03T23:22:47.956Z,54.03
2018-03-03T23:25:16.215Z,55.30
2018-03-03T23:27:46.048Z,58.40
2018-03-03T23:30:14.263Z,53.90
2018-03-03T23:32:42.477Z,54.53
2018-03-03T23:35:11.512Z,54.67
2018-03-03T23:37:39.801Z,53.40
2018-03-03T23:40:07.953Z,51.73
2018-03-03T23:42:36.154Z,52.97
2018-03-03T23:45:04.312Z,53.67
2018-03-03T23:47:32.620Z,53.60
2018-03-03T23:50:00.826Z,53.27
2018-03-03T23:52:29.758Z,53.70
2018-03-03T23:54:57.926Z,54.73
2018-03-03T23:57:26.126Z,51.17
2018-03-03T23:59:54.330Z,53.23
